Time;durP1;ratioP1;P1;durP2;ratioP2;P2;SDS_P1;SDS_P2;PMS_P1;PMS_P2;Temp;Humidity;BMP_temperature;BMP_pressure;BME280_temperature;BME280_humidity;BME280_pressure;Samples;Min_cycle;Max_cycle;Signal;HPM_P1;HPM_P2
2023/06/08 00:01:45;;;;;;;19.85;18.45;;;;;;;16.96;72.16;98186.97;5032952;28;20115;-75
2023/06/08 00:04:12;;;;;;;19.23;17.90;;;;;;;16.92;71.88;98184.00;5018855;28;20059;-75
2023/06/08 00:06:40;;;;;;;18.50;16.98;;;;;;;16.85;71.91;98177.28;5033271;28;20499;-75
2023/06/08 00:09:09;;;;;;;18.80;17.35;;;;;;;16.78;72.47;98182.25;5009254;28;20033;-75
2023/06/08 00:11:35;;;;;;;18.73;17.20;;;;;;;16.78;72.08;98174.88;5004015;28;20539;-77
2023/06/08 00:14:00;;;;;;;19.88;18.23;;;;;;;16.78;72.24;98184.97;5018486;28;20116;-74
2023/06/08 00:16:27;;;;;;;22.50;20.88;;;;;;;16.25;74.14;98184.75;5017777;28;20468;-77
2023/06/08 00:18:56;;;;;;;28.70;26.90;;;;;;;16.12;75.61;98179.13;4998129;28;20407;-75
2023/06/08 00:21:22;;;;;;;32.55;30.52;;;;;;;16.23;74.61;98181.50;5024884;28;20060;-76
2023/06/08 00:23:49;;;;;;;32.45;30.50;;;;;;;16.13;74.75;98181.56;4982018;28;20460;-75
2023/06/08 00:26:14;;;;;;;34.50;32.28;;;;;;;15.87;75.85;98166.47;5024143;28;20112;-75
2023/06/08 00:28:40;;;;;;;31.33;29.33;;;;;;;16.21;73.87;98172.81;4982129;28;20038;-74
2023/06/08 00:31:06;;;;;;;32.55;30.65;;;;;;;16.04;75.24;98180.50;4999982;28;20388;-75
2023/06/08 00:33:31;;;;;;;35.10;32.92;;;;;;;15.72;75.93;98177.41;5017296;28;20029;-76
2023/06/08 00:35:58;;;;;;;43.85;41.25;;;;;;;15.58;76.92;98189.94;5014651;28;20454;-75
2023/06/08 00:38:24;;;;;;;46.95;44.35;;;;;;;15.43;77.13;98181.81;4998263;28;20120;-78
2023/06/08 00:40:50;;;;;;;46.65;44.05;;;;;;;15.40;77.58;98179.66;5022570;28;20124;-75
2023/06/08 00:43:15;;;;;;;44.08;41.72;;;;;;;15.68;76.94;98179.06;5004233;28;20128;-75
2023/06/08 00:45:41;;;;;;;40.20;37.95;;;;;;;16.05;74.83;98189.47;5004168;28;20491;-77
2023/06/08 00:48:07;;;;;;;41.35;38.95;;;;;;;15.69;76.44;98176.06;5000841;28;20388;-75
2023/06/08 00:50:33;;;;;;;48.50;46.00;;;;;;;15.33;77.91;98173.72;5014651;28;20030;-76
2023/06/08 00:52:59;;;;;;;42.75;40.50;;;;;;;15.84;76.17;98180.63;4997349;28;20025;-75
2023/06/08 00:55:24;;;;;;;39.33;37.22;;;;;;;15.69;76.17;98180.66;4997815;28;20545;-75
2023/06/08 00:57:51;;;;;;;39.63;37.25;;;;;;;15.82;75.90;98180.09;4984720;28;20052;-75
2023/06/08 01:00:16;;;;;;;39.78;37.58;;;;;;;15.58;76.15;98173.66;5024027;28;20063;-77
2023/06/08 01:02:42;;;;;;;33.47;31.33;;;;;;;16.03;74.48;98176.19;5014457;28;20061;-75
2023/06/08 01:05:07;;;;;;;35.33;33.33;;;;;;;15.70;75.69;98177.69;5004317;28;20579;-75
2023/06/08 01:07:55;;;;;;;34.35;32.42;;;;;;;15.68;75.69;98173.63;5000378;28;20033;-75
2023/06/08 01:10:28;;;;;;;32.35;30.52;;;;;;;16.17;74.27;98173.66;5001344;28;20033;-77
2023/06/08 01:13:25;;;;;;;35.42;33.22;;;;;;;15.95;74.78;98168.63;5000947;28;20550;-77
2023/06/08 01:15:56;;;;;;;31.90;29.85;;;;;;;15.83;75.26;98171.66;5009482;28;20045;-76
2023/06/08 01:18:23;;;;;;;29.60;27.58;;;;;;;15.99;74.44;98175.09;5013566;28;20073;-76
2023/06/08 01:21:06;;;;;;;30.25;28.35;;;;;;;16.03;74.30;98181.63;5002041;28;20037;-76
2023/06/08 01:23:37;;;;;;;32.58;30.60;;;;;;;15.72;75.10;98180.13;5001303;28;20033;-75
2023/06/08 01:26:04;;;;;;;32.17;30.38;;;;;;;15.69;74.57;98180.66;5031470;28;20064;-76
2023/06/08 01:28:30;;;;;;;35.65;33.40;;;;;;;15.53;75.41;98176.38;4997508;28;20021;-76
2023/06/08 01:30:58;;;;;;;37.10;34.90;;;;;;;15.50;75.99;98171.50;4997644;28;20060;-75
2023/06/08 01:33:25;;;;;;;39.38;37.08;;;;;;;15.48;75.99;98179.13;4980691;28;20483;-75
2023/06/08 01:36:06;;;;;;;36.85;34.75;;;;;;;15.58;75.44;98179.09;5013969;28;20236;-76
2023/06/08 01:38:40;;;;;;;35.58;33.58;;;;;;;15.61;75.10;98181.25;5010158;28;20080;-75
2023/06/08 01:41:11;;;;;;;38.97;36.88;;;;;;;15.27;76.95;98177.50;4998363;28;20078;-75
2023/06/08 01:43:41;;;;;;;38.90;36.80;;;;;;;15.53;75.43;98177.22;4994052;28;20238;-74
2023/06/08 01:46:10;;;;;;;38.42;36.30;;;;;;;15.29;76.56;98170.72;5003914;28;20037;-75
2023/06/08 01:48:38;;;;;;;39.58;37.47;;;;;;;15.38;75.61;98169.06;5001263;28;20029;-74
2023/06/08 01:51:05;;;;;;;37.30;35.00;;;;;;;15.60;75.14;98166.88;4997225;28;20041;-74
2023/06/08 01:53:30;;;;;;;35.65;33.55;;;;;;;15.65;74.97;98163.31;4996494;28;20567;-75
2023/06/08 01:55:55;;;;;;;33.80;31.95;;;;;;;15.60;74.82;98166.06;4996440;28;20128;-75
2023/06/08 01:58:21;;;;;;;36.90;34.90;;;;;;;15.28;76.44;98152.00;5005430;28;20029;-76
2023/06/08 02:00:46;;;;;;;35.92;33.95;;;;;;;15.75;75.00;98158.66;4995834;28;20594;-74
2023/06/08 02:03:12;;;;;;;35.30;33.08;;;;;;;15.71;75.07;98151.34;5024809;28;20022;-77
2023/06/08 02:05:39;;;;;;;35.58;33.58;;;;;;;15.69;75.87;98150.81;5019199;28;20507;-77
2023/06/08 02:08:05;;;;;;;33.53;31.42;;;;;;;15.76;75.05;98148.59;5013303;28;20028;-76
2023/06/08 02:10:30;;;;;;;33.75;31.52;;;;;;;15.72;74.91;98152.97;5014769;28;20033;-76
2023/06/08 02:12:56;;;;;;;36.55;34.38;;;;;;;15.51;76.53;98151.44;5034482;28;20446;-77
2023/06/08 02:15:22;;;;;;;39.03;36.63;;;;;;;15.43;76.21;98143.81;5020493;28;20033;-77
2023/06/08 02:17:49;;;;;;;40.72;38.33;;;;;;;15.30;76.67;98150.66;4978324;28;20064;-76
2023/06/08 02:20:14;;;;;;;38.70;36.58;;;;;;;15.62;76.11;98156.53;4994929;28;20041;-75
2023/06/08 02:22:40;;;;;;;37.40;35.10;;;;;;;15.61;75.81;98152.19;4998529;28;20034;-77
2023/06/08 02:25:07;;;;;;;41.75;38.90;;;;;;;15.41;76.61;98152.25;5005989;28;20564;-76
2023/06/08 02:27:36;;;;;;;41.10;38.65;;;;;;;15.23;77.70;98155.56;5025934;28;20549;-76
2023/06/08 02:30:03;;;;;;;40.85;38.20;;;;;;;15.52;75.86;98144.91;5009873;28;20549;-76
2023/06/08 02:32:37;;;;;;;43.58;41.05;;;;;;;15.18;76.83;98150.94;5021511;28;20029;-77
2023/06/08 02:35:04;;;;;;;42.08;39.50;;;;;;;15.39;77.15;98149.00;5005341;28;20069;-76
2023/06/08 02:37:33;;;;;;;41.25;38.90;;;;;;;15.46;76.06;98148.72;5010541;23;20503;-77
2023/06/08 02:40:00;;;;;;;42.53;40.13;;;;;;;15.24;77.01;98141.69;5029436;28;20044;-76
2023/06/08 02:42:30;;;;;;;41.92;39.42;;;;;;;15.38;76.17;98135.72;4991020;28;20051;-76
2023/06/08 02:44:55;;;;;;;40.22;37.75;;;;;;;15.47;76.50;98142.22;4980868;28;20468;-76
2023/06/08 02:47:21;;;;;;;44.17;41.67;;;;;;;15.12;77.65;98141.19;4986997;28;20030;-76
2023/06/08 02:49:47;;;;;;;45.50;42.63;;;;;;;15.14;77.72;98136.31;5008775;28;20451;-76
2023/06/08 02:52:12;;;;;;;48.63;45.97;;;;;;;14.92;78.82;98138.53;5006727;28;20372;-75
2023/06/08 02:54:38;;;;;;;48.42;45.80;;;;;;;15.09;77.66;98139.03;4999487;28;20109;-76
2023/06/08 02:57:03;;;;;;;46.78;44.05;;;;;;;15.02;78.05;98135.81;5005810;28;20112;-75
2023/06/08 02:59:36;;;;;;;50.45;47.75;;;;;;;14.99;78.91;98141.75;5014139;28;20038;-76
2023/06/08 03:02:02;;;;;;;47.63;45.03;;;;;;;15.17;77.47;98145.78;4989082;28;20492;-76
2023/06/08 03:04:30;;;;;;;50.92;47.67;;;;;;;14.97;78.63;98152.06;4977726;28;20037;-77
2023/06/08 03:07:01;;;;;;;50.20;47.40;;;;;;;15.08;77.88;98145.53;4992477;28;20044;-76
2023/06/08 03:09:29;;;;;;;47.65;45.05;;;;;;;15.18;77.42;98152.84;4999675;28;20040;-77
2023/06/08 03:11:57;;;;;;;47.97;44.92;;;;;;;15.03;77.74;98144.72;5000427;28;20029;-76
2023/06/08 03:14:31;;;;;;;44.22;41.83;;;;;;;15.33;76.15;98146.56;4986076;28;20043;-75
2023/06/08 03:17:02;;;;;;;42.70;40.20;;;;;;;15.38;76.54;98143.84;4988116;28;20052;-76
2023/06/08 03:19:30;;;;;;;46.22;43.63;;;;;;;15.36;76.98;98133.25;4999989;28;20037;-76
2023/06/08 03:22:00;;;;;;;46.70;43.90;;;;;;;15.24;77.34;98135.47;4969701;28;20022;-76
2023/06/08 03:24:31;;;;;;;47.25;44.63;;;;;;;15.17;78.00;98133.03;5015395;28;20554;-76
2023/06/08 03:27:00;;;;;;;47.85;45.15;;;;;;;15.23;77.65;98134.66;4968979;28;20026;-75
2023/06/08 03:29:26;;;;;;;45.13;42.55;;;;;;;15.53;77.26;98135.66;4989616;28;20017;-76
2023/06/08 03:31:52;;;;;;;44.75;42.05;;;;;;;15.29;78.11;98137.34;4999375;28;20084;-75
2023/06/08 03:34:23;;;;;;;46.13;43.40;;;;;;;15.44;77.33;98134.59;4998820;28;20041;-76
2023/06/08 03:36:49;;;;;;;44.10;41.60;;;;;;;15.48;77.12;98131.06;4995515;28;20121;-77
2023/06/08 03:39:21;;;;;;;49.67;46.85;;;;;;;15.14;78.50;98130.91;4991240;28;20112;-76
2023/06/08 03:41:47;;;;;;;50.25;47.50;;;;;;;15.28;78.09;98139.25;4981258;28;20045;-77
2023/06/08 03:44:14;;;;;;;49.53;46.85;;;;;;;15.32;77.96;98143.03;5000833;28;20021;-76
2023/06/08 03:46:40;;;;;;;50.33;47.33;;;;;;;15.03;78.65;98134.69;4999043;28;20084;-77
2023/06/08 03:49:06;;;;;;;50.33;47.53;;;;;;;14.99;78.73;98138.22;4998764;28;20025;-76
2023/06/08 03:51:32;;;;;;;50.55;47.72;;;;;;;15.26;77.51;98148.75;4998863;28;20029;-76
2023/06/08 03:53:58;;;;;;;49.42;46.75;;;;;;;14.99;78.54;98143.66;4971405;28;20021;-77
2023/06/08 03:56:26;;;;;;;51.50;48.65;;;;;;;15.12;78.75;98135.75;4979073;28;20396;-77
2023/06/08 03:58:52;;;;;;;52.13;48.88;;;;;;;15.16;78.16;98145.00;4991264;28;20087;-76
2023/06/08 04:01:22;;;;;;;55.40;52.38;;;;;;;14.85;79.79;98135.28;4993470;28;20054;-76
2023/06/08 04:03:50;;;;;;;57.00;53.95;;;;;;;15.06;78.64;98131.44;5007679;28;20446;-77
2023/06/08 04:06:16;;;;;;;51.88;48.90;;;;;;;15.21;78.63;98145.00;4969700;28;20150;-76
2023/06/08 04:08:44;;;;;;;51.90;48.95;;;;;;;15.08;78.68;98142.81;4985161;28;20487;-75
2023/06/08 04:11:11;;;;;;;50.90;48.20;;;;;;;15.45;77.77;98144.41;5001940;28;20052;-75
2023/06/08 04:13:38;;;;;;;48.50;45.90;;;;;;;15.49;77.32;98148.19;4997838;28;20061;-75
2023/06/08 04:16:08;;;;;;;46.47;43.80;;;;;;;15.39;77.72;98148.16;4982088;28;20025;-76
2023/06/08 04:18:35;;;;;;;47.47;44.85;;;;;;;15.61;77.18;98144.03;4998359;28;20042;-75
2023/06/08 04:21:02;;;;;;;48.53;45.63;;;;;;;15.41;78.21;98135.13;5006337;28;20404;-76
2023/06/08 04:23:28;;;;;;;47.13;44.42;;;;;;;15.87;76.86;98144.75;4993074;28;20034;-77
2023/06/08 04:25:54;;;;;;;45.97;43.45;;;;;;;15.64;77.76;98139.97;4989931;28;20033;-76
2023/06/08 04:28:21;;;;;;;51.40;48.40;;;;;;;15.82;77.56;98142.06;5009838;28;20087;-76
2023/06/08 04:30:48;;;;;;;45.75;43.08;;;;;;;16.16;76.00;98145.66;4989906;28;20158;-75
2023/06/08 04:33:13;;;;;;;41.95;39.60;;;;;;;16.23;75.20;98146.16;4979614;28;20034;-77
2023/06/08 04:35:40;;;;;;;43.45;40.63;;;;;;;16.06;76.77;98159.31;4989594;28;20152;-77
2023/06/08 04:38:15;;;;;;;41.20;38.65;;;;;;;16.35;76.03;98152.06;4993728;28;20095;-76
2023/06/08 04:40:52;;;;;;;41.85;39.35;;;;;;;16.19;76.86;98153.28;4998559;28;20136;-77
2023/06/08 04:43:20;;;;;;;42.35;39.65;;;;;;;16.31;76.03;98151.00;4997512;28;20084;-77
2023/06/08 04:45:51;;;;;;;41.65;39.17;;;;;;;16.62;76.04;98138.03;4998254;28;20030;-77
2023/06/08 04:48:17;;;;;;;35.05;32.85;;;;;;;16.94;74.33;98140.22;4997951;28;20491;-77
2023/06/08 04:50:45;;;;;;;36.70;34.42;;;;;;;16.91;74.51;98136.16;4981927;28;20025;-77
2023/06/08 04:53:14;;;;;;;36.67;34.17;;;;;;;16.82;75.26;98137.06;5013543;28;20052;-77
2023/06/08 04:55:45;;;;;;;36.47;34.08;;;;;;;16.75;75.11;98137.38;4997777;28;20022;-78
2023/06/08 04:58:14;;;;;;;40.22;37.63;;;;;;;16.64;75.75;98143.19;4981956;28;20033;-77
2023/06/08 05:00:39;;;;;;;40.28;37.70;;;;;;;16.61;76.49;98150.00;4997598;28;20837;-77
2023/06/08 05:03:08;;;;;;;38.90;36.67;;;;;;;16.91;75.55;98143.50;5006380;28;20037;-76
2023/06/08 05:05:33;;;;;;;34.17;31.67;;;;;;;17.18;74.74;98141.03;4978585;28;20033;-76
2023/06/08 05:07:59;;;;;;;34.60;32.40;;;;;;;17.11;74.50;98149.53;4994227;28;20034;-75
2023/06/08 05:10:24;;;;;;;31.00;28.80;;;;;;;17.40;73.47;98152.25;5025459;28;20515;-77
2023/06/08 05:12:50;;;;;;;32.08;29.83;;;;;;;17.44;73.81;98145.09;4994467;28;20042;-76
2023/06/08 05:15:16;;;;;;;30.85;28.63;;;;;;;17.68;73.23;98154.13;4984290;28;20069;-77
2023/06/08 05:17:41;;;;;;;30.10;28.02;;;;;;;17.16;74.57;98160.38;5013662;28;20049;-76
2023/06/08 05:20:07;;;;;;;29.77;27.77;;;;;;;17.60;73.10;98151.22;4997140;28;20480;-76
2023/06/08 05:22:32;;;;;;;27.88;25.98;;;;;;;17.81;72.85;98156.13;5031488;28;20034;-76
2023/06/08 05:24:58;;;;;;;30.92;28.70;;;;;;;17.94;72.59;98149.97;5013214;28;20025;-76
2023/06/08 05:27:23;;;;;;;27.25;25.38;;;;;;;18.10;72.11;98147.03;5013760;28;20450;-76
2023/06/08 05:29:48;;;;;;;29.05;27.05;;;;;;;18.06;73.40;98143.28;5013608;28;20032;-76
2023/06/08 05:32:14;;;;;;;28.23;26.27;;;;;;;18.28;71.88;98135.31;5000576;28;20064;-76
2023/06/08 05:34:39;;;;;;;25.45;23.42;;;;;;;18.58;71.05;98138.41;5030855;28;20061;-76
2023/06/08 05:37:05;;;;;;;25.00;23.23;;;;;;;18.06;72.04;98156.91;5013147;28;20470;-76
2023/06/08 05:39:30;;;;;;;25.10;23.42;;;;;;;18.11;71.79;98149.44;5013688;28;20029;-75
2023/06/08 05:41:56;;;;;;;25.90;23.80;;;;;;;18.32;71.99;98152.72;5031534;28;20069;-75
2023/06/08 05:44:21;;;;;;;24.15;22.35;;;;;;;18.46;71.31;98148.19;5013103;28;20029;-76
2023/06/08 05:46:47;;;;;;;24.42;22.55;;;;;;;18.27;71.20;98145.44;4997728;28;20041;-76
2023/06/08 05:49:12;;;;;;;24.17;22.25;;;;;;;18.65;70.97;98150.88;5009996;28;20033;-77
2023/06/08 05:51:37;;;;;;;24.40;22.50;;;;;;;18.94;70.16;98146.84;5017383;28;20047;-77
2023/06/08 05:54:03;;;;;;;20.95;19.35;;;;;;;19.24;69.18;98143.56;4997031;28;20034;-77
2023/06/08 05:56:28;;;;;;;21.77;20.08;;;;;;;19.05;69.68;98156.44;5028919;28;20042;-76
2023/06/08 05:58:53;;;;;;;20.10;18.48;;;;;;;18.97;69.50;98148.97;5009508;28;20104;-76
2023/06/08 06:01:20;;;;;;;21.80;19.65;;;;;;;19.06;69.60;98147.16;4995418;28;20044;-77
2023/06/08 06:03:46;;;;;;;21.13;19.30;;;;;;;19.15;69.54;98148.09;5026451;28;20383;-77
2023/06/08 06:06:12;;;;;;;18.75;16.92;;;;;;;19.30;68.21;98152.44;4982418;28;20038;-77
2023/06/08 06:08:37;;;;;;;17.45;16.15;;;;;;;19.44;68.03;98147.03;4981151;28;20026;-76
2023/06/08 06:11:02;;;;;;;18.15;16.55;;;;;;;19.44;67.72;98153.28;4999146;28;20462;-77
2023/06/08 06:13:28;;;;;;;18.58;16.77;;;;;;;19.35;67.44;98146.09;4999866;28;20369;-77
2023/06/08 06:15:53;;;;;;;18.30;16.88;;;;;;;19.44;68.47;98152.50;5017666;28;20037;-77
2023/06/08 06:18:18;;;;;;;17.92;16.42;;;;;;;19.57;67.44;98154.44;4984285;28;20546;-77
2023/06/08 06:20:44;;;;;;;16.25;14.75;;;;;;;19.68;66.68;98155.84;4998701;28;20128;-77
2023/06/08 06:23:09;;;;;;;15.93;14.38;;;;;;;19.79;66.56;98154.53;4991325;28;20100;-77
2023/06/08 06:25:37;;;;;;;15.38;14.10;;;;;;;19.64;66.52;98152.09;5000618;28;20457;-77
2023/06/08 06:28:03;;;;;;;14.93;13.60;;;;;;;20.02;65.38;98158.97;4983967;28;20021;-78
2023/06/08 06:30:28;;;;;;;15.77;14.15;;;;;;;20.01;65.52;98160.06;5016569;28;20045;-77
2023/06/08 06:32:54;;;;;;;14.77;13.48;;;;;;;19.91;65.42;98158.34;4989684;28;20030;-77
2023/06/08 06:35:19;;;;;;;16.30;14.70;;;;;;;20.17;65.13;98158.63;4993413;28;20506;-77
2023/06/08 06:37:45;;;;;;;14.65;13.25;;;;;;;20.16;65.29;98153.47;4991118;28;20037;-77
2023/06/08 06:40:11;;;;;;;13.95;12.55;;;;;;;20.41;64.48;98161.94;5012240;28;20038;-76
2023/06/08 06:42:37;;;;;;;13.85;12.45;;;;;;;20.42;64.56;98166.28;4991520;28;20025;-77
2023/06/08 06:45:11;;;;;;;12.70;11.40;;;;;;;20.70;63.54;98161.50;4972511;28;20483;-77
2023/06/08 06:47:37;;;;;;;13.00;11.70;;;;;;;20.73;63.69;98160.09;5004712;28;20037;-76
2023/06/08 06:50:03;;;;;;;14.27;12.65;;;;;;;20.38;64.65;98170.75;4993680;28;20068;-77
2023/06/08 06:52:29;;;;;;;12.30;11.10;;;;;;;20.62;62.84;98165.00;5008528;28;20029;-77
2023/06/08 06:54:55;;;;;;;12.43;11.32;;;;;;;20.72;63.34;98161.22;5003882;28;20052;-77
2023/06/08 06:57:21;;;;;;;12.57;11.18;;;;;;;21.02;62.88;98157.72;5016102;28;20060;-77
2023/06/08 06:59:46;;;;;;;11.68;10.48;;;;;;;21.10;61.97;98151.50;5002983;28;20029;-77
2023/06/08 07:02:12;;;;;;;11.38;10.27;;;;;;;21.12;60.82;98155.56;4987729;28;20400;-77
2023/06/08 07:04:38;;;;;;;11.75;10.57;;;;;;;20.86;63.70;98170.19;5009118;28;20112;-77
2023/06/08 07:07:04;;;;;;;12.30;11.10;;;;;;;20.82;63.89;98169.97;4992673;28;20068;-77
2023/06/08 07:09:29;;;;;;;11.90;10.88;;;;;;;20.94;63.11;98166.69;5002897;28;20563;-77
2023/06/08 07:11:54;;;;;;;12.45;11.45;;;;;;;20.93;63.99;98167.81;5033686;28;20159;-77
2023/06/08 07:14:20;;;;;;;12.93;11.80;;;;;;;20.85;63.75;98176.75;5002100;28;20116;-77
2023/06/08 07:16:45;;;;;;;12.05;10.95;;;;;;;21.22;62.79;98165.44;4987987;28;20034;-77
2023/06/08 07:19:11;;;;;;;12.70;11.50;;;;;;;20.97;62.64;98164.13;5026908;28;20033;-77
2023/06/08 07:21:39;;;;;;;11.95;10.93;;;;;;;21.29;62.25;98160.31;4975180;28;20264;-77
2023/06/08 07:24:06;;;;;;;13.00;11.70;;;;;;;21.26;61.99;98160.97;4970515;28;20364;-77
2023/06/08 07:26:31;;;;;;;12.68;11.48;;;;;;;21.10;62.56;98162.47;4987830;28;20038;-77
2023/06/08 07:29:01;;;;;;;12.02;11.02;;;;;;;21.08;62.83;98164.72;4992897;28;20036;-77
2023/06/08 07:31:29;;;;;;;12.82;11.77;;;;;;;21.10;63.82;98165.19;4991330;28;20034;-77
2023/06/08 07:33:55;;;;;;;13.02;11.40;;;;;;;21.29;62.54;98171.28;4993631;28;20392;-77
2023/06/08 07:36:22;;;;;;;11.45;10.32;;;;;;;21.46;60.88;98165.88;4991362;28;20036;-77
2023/06/08 07:38:51;;;;;;;12.18;10.98;;;;;;;22.00;59.98;98170.97;5019403;28;20071;-77
2023/06/08 07:41:19;;;;;;;11.88;10.10;;;;;;;21.99;58.99;98163.84;4987237;28;20034;-76
2023/06/08 07:43:45;;;;;;;11.80;9.57;;;;;;;22.29;58.81;98150.34;5008293;28;20029;-77
2023/06/08 07:46:11;;;;;;;10.30;9.30;;;;;;;22.52;58.75;98163.59;5007941;28;20041;-77
2023/06/08 07:48:36;;;;;;;10.07;9.18;;;;;;;22.72;57.29;98159.44;5001852;28;20044;-77
2023/06/08 07:51:02;;;;;;;10.20;9.13;;;;;;;22.42;56.81;98155.69;5003099;28;20042;-76
2023/06/08 07:53:37;;;;;;;11.18;9.45;;;;;;;22.55;58.13;98162.13;5013585;28;20674;-77
2023/06/08 07:56:03;;;;;;;10.23;9.20;;;;;;;22.07;58.37;98150.47;5015084;28;20087;-77
2023/06/08 07:58:29;;;;;;;11.32;10.15;;;;;;;21.65;60.79;98141.78;4990128;28;20030;-77
2023/06/08 08:00:54;;;;;;;10.50;9.45;;;;;;;21.36;61.56;98144.25;5009764;28;20056;-77
2023/06/08 08:03:20;;;;;;;11.02;9.93;;;;;;;21.67;59.85;98145.03;5003334;28;20197;-77
2023/06/08 08:05:48;;;;;;;10.82;9.73;;;;;;;21.70;59.97;98158.09;5001735;28;20038;-77
2023/06/08 08:08:14;;;;;;;12.68;9.68;;;;;;;21.65;61.25;98152.75;4988938;28;20109;-77
2023/06/08 08:10:40;;;;;;;10.23;9.30;;;;;;;22.03;60.35;98148.38;5024721;28;20120;-77
2023/06/08 08:13:05;;;;;;;13.20;10.35;;;;;;;21.91;59.70;98145.44;5021107;28;20056;-76
2023/06/08 08:15:31;;;;;;;10.73;9.43;;;;;;;22.81;57.49;98141.00;5001507;28;20045;-77
2023/06/08 08:17:56;;;;;;;10.50;8.75;;;;;;;23.05;56.22;98148.72;5005902;28;20121;-77
2023/06/08 08:20:22;;;;;;;10.20;9.20;;;;;;;22.47;58.71;98144.56;5008205;28;20044;-77
2023/06/08 08:22:47;;;;;;;12.73;10.05;;;;;;;22.09;59.47;98138.06;5020078;28;20037;-76
2023/06/08 08:25:13;;;;;;;10.13;9.13;;;;;;;22.05;60.58;98150.00;5000829;28;20140;-77
2023/06/08 08:27:38;;;;;;;10.82;9.63;;;;;;;21.56;61.20;98149.19;4989808;28;20614;-77
2023/06/08 08:30:04;;;;;;;11.07;9.68;;;;;;;21.98;60.25;98140.28;5027571;28;20040;-77
2023/06/08 08:32:30;;;;;;;13.10;9.25;;;;;;;22.21;59.38;98140.16;5005732;28;20061;-77
2023/06/08 08:34:55;;;;;;;11.27;9.00;;;;;;;22.05;60.52;98133.53;5007478;28;20069;-77
2023/06/08 08:37:20;;;;;;;10.00;9.10;;;;;;;21.87;61.27;98136.22;5019415;28;20029;-77
2023/06/08 08:39:46;;;;;;;10.55;9.45;;;;;;;21.68;60.72;98138.41;4968863;28;20125;-77
2023/06/08 08:42:15;;;;;;;11.20;9.57;;;;;;;22.35;57.85;98140.84;4989516;28;20021;-77
2023/06/08 08:44:42;;;;;;;10.20;9.18;;;;;;;22.53;59.45;98139.69;5023562;28;20041;-77
2023/06/08 08:47:10;;;;;;;9.63;8.80;;;;;;;22.14;58.85;98132.41;5003862;28;20024;-77
2023/06/08 08:49:40;;;;;;;10.52;9.45;;;;;;;22.39;57.95;98133.56;5011629;28;20061;-76
2023/06/08 08:52:08;;;;;;;10.13;9.10;;;;;;;22.69;57.08;98133.44;5022125;28;20029;-77
2023/06/08 08:54:34;;;;;;;9.80;8.63;;;;;;;22.62;58.48;98129.56;5001600;28;20568;-76
2023/06/08 08:57:01;;;;;;;10.35;9.15;;;;;;;22.72;58.63;98126.47;4997894;28;20045;-77
2023/06/08 08:59:29;;;;;;;10.80;8.77;;;;;;;23.00;56.65;98127.72;4997692;28;20034;-77
2023/06/08 09:01:55;;;;;;;9.25;8.00;;;;;;;22.92;56.50;98128.53;5014494;28;20048;-77
2023/06/08 09:04:20;;;;;;;8.32;7.53;;;;;;;22.90;56.49;98127.25;4997026;28;20040;-77
2023/06/08 09:06:50;;;;;;;8.68;7.88;;;;;;;23.27;55.55;98116.34;5031526;28;20112;-77
2023/06/08 09:09:17;;;;;;;10.35;8.23;;;;;;;23.04;57.03;98117.69;4997659;28;20044;-77
2023/06/08 09:11:58;;;;;;;8.60;6.15;;;;;;;23.15;53.43;98107.97;5013988;28;20030;-77
2023/06/08 09:14:24;;;;;;;7.57;6.78;;;;;;;24.48;50.83;98113.75;5000082;28;20037;-76
2023/06/08 09:16:50;;;;;;;7.07;6.47;;;;;;;25.06;49.15;98109.97;4984998;28;20026;-76
2023/06/08 09:19:15;;;;;;;6.57;5.97;;;;;;;25.74;46.79;98108.38;4999639;28;20408;-77
2023/06/08 09:21:43;;;;;;;6.68;6.03;;;;;;;26.22;45.80;98097.31;5016878;28;20105;-77
2023/06/08 09:27:48;;;;;;;6.00;5.40;;;;;;;26.13;44.63;98090.31;5023593;28;20049;-77
2023/06/08 09:30:23;;;;;;;6.65;5.68;;;;;;;26.10;43.16;98094.56;4997718;28;20033;-77
2023/06/08 09:32:49;;;;;;;5.87;4.77;;;;;;;25.29;44.63;98097.41;4981772;28;20073;-77
2023/06/08 09:35:21;;;;;;;6.45;5.43;;;;;;;25.05;46.76;98100.09;5014550;28;20557;-77
2023/06/08 09:37:49;;;;;;;7.40;5.47;;;;;;;24.40;47.71;98096.16;5023567;28;20045;-77
2023/06/08 09:40:18;;;;;;;5.75;5.25;;;;;;;25.59;44.67;98078.72;5011154;28;20503;-76
2023/06/08 09:42:50;;;;;;;6.03;5.43;;;;;;;25.49;44.95;98082.72;5010019;28;20136;-77
2023/06/08 09:45:16;;;;;;;6.07;5.28;;;;;;;26.14;43.21;98078.13;5001360;28;20377;-77
2023/06/08 09:47:42;;;;;;;6.07;5.50;;;;;;;26.23;43.58;98076.03;5004790;28;20052;-77
2023/06/08 09:50:09;;;;;;;6.78;5.45;;;;;;;26.01;44.81;98071.78;5027269;28;20040;-77
2023/06/08 09:52:36;;;;;;;6.32;5.68;;;;;;;26.64;42.78;98076.44;5028467;28;20087;-77
2023/06/08 09:55:02;;;;;;;5.63;5.05;;;;;;;26.50;42.65;98076.03;5004676;28;20041;-77
2023/06/08 09:57:33;;;;;;;8.73;5.72;;;;;;;26.05;43.34;98076.25;5017319;28;20487;-77
2023/06/08 10:00:20;;;;;;;6.88;5.85;;;;;;;26.09;42.98;98079.91;5010168;28;20097;-77
2023/06/08 10:02:54;;;;;;;6.63;6.03;;;;;;;25.81;46.31;98072.75;4996206;28;20042;-77
2023/06/08 10:05:22;;;;;;;6.85;6.18;;;;;;;26.17;45.79;98077.41;5025176;28;20029;-77
2023/06/08 10:07:51;;;;;;;7.03;6.20;;;;;;;26.79;43.25;98071.34;5002523;28;20383;-77
2023/06/08 10:10:22;;;;;;;6.95;5.78;;;;;;;26.34;44.57;98066.09;5027220;28;20475;-76
2023/06/08 10:12:49;;;;;;;6.78;5.80;;;;;;;25.61;44.87;98063.44;4994359;28;20057;-76
2023/06/08 10:15:15;;;;;;;6.50;5.72;;;;;;;27.01;43.09;98068.78;5026236;28;20365;-77
2023/06/08 10:17:40;;;;;;;6.47;5.63;;;;;;;26.14;44.57;98072.59;4997395;28;20045;-77
2023/06/08 10:20:06;;;;;;;6.88;5.50;;;;;;;26.40;43.65;98076.53;5028103;28;20072;-77
2023/06/08 10:22:35;;;;;;;6.45;5.80;;;;;;;26.07;44.19;98073.13;4971266;28;20095;-77
2023/06/08 10:25:03;;;;;;;5.82;5.13;;;;;;;26.23;44.16;98071.31;4987585;28;20048;-77
2023/06/08 10:27:30;;;;;;;5.78;5.28;;;;;;;25.71;43.95;98071.25;5009695;28;20046;-77
2023/06/08 10:30:04;;;;;;;7.95;6.68;;;;;;;24.86;48.08;98066.75;5026748;28;20021;-77
2023/06/08 10:32:33;;;;;;;7.35;6.65;;;;;;;24.77;48.42;98057.75;4988198;28;20733;-77
2023/06/08 10:35:04;;;;;;;6.90;6.30;;;;;;;24.97;47.60;98071.47;4970867;28;20030;-76
2023/06/08 10:37:31;;;;;;;7.50;6.57;;;;;;;24.76;48.15;98056.13;5016609;28;20549;-77
2023/06/08 10:40:00;;;;;;;7.38;6.65;;;;;;;24.89;48.11;98055.03;5003604;28;20031;-77
2023/06/08 10:42:26;;;;;;;7.28;6.38;;;;;;;24.40;48.87;98054.84;5006597;28;20040;-76
2023/06/08 10:44:58;;;;;;;8.70;6.10;;;;;;;24.64;48.58;98056.91;5025807;28;20022;-77
2023/06/08 10:47:25;;;;;;;6.57;5.85;;;;;;;24.58;47.42;98061.00;5023681;28;20040;-77
2023/06/08 10:50:03;;;;;;;7.60;5.90;;;;;;;24.93;48.52;98055.97;5003192;28;20033;-77
2023/06/08 10:52:38;;;;;;;9.88;7.20;;;;;;;25.76;49.86;98046.19;5016764;28;20041;-77
2023/06/08 10:55:11;;;;;;;8.63;7.35;;;;;;;25.54;51.65;98043.06;5015714;28;20041;-77
2023/06/08 10:57:52;;;;;;;8.30;7.47;;;;;;;25.17;54.69;98058.78;5000067;28;20046;-77
2023/06/08 11:00:20;;;;;;;8.55;7.25;;;;;;;25.78;50.71;98049.41;5000192;28;20046;-77
2023/06/08 11:02:47;;;;;;;8.20;6.82;;;;;;;25.90;48.72;98048.56;5014731;28;20083;-77
2023/06/08 11:05:14;;;;;;;6.50;5.63;;;;;;;25.88;47.73;98043.38;5006203;28;20124;-77
2023/06/08 11:07:40;;;;;;;5.45;4.95;;;;;;;25.54;46.46;98043.06;4982582;28;20097;-73
2023/06/08 11:10:06;;;;;;;6.38;5.65;;;;;;;25.52;46.68;98035.16;5024698;28;20468;-77
2023/06/08 11:12:31;;;;;;;6.13;5.53;;;;;;;26.43;45.64;98039.13;5016016;28;20021;-77
2023/06/08 11:14:57;;;;;;;7.45;6.63;;;;;;;25.86;45.41;98036.59;5015684;28;20052;-77
2023/06/08 11:17:22;;;;;;;7.40;5.93;;;;;;;25.92;44.44;98027.75;4999281;28;20506;-77
2023/06/08 11:19:47;;;;;;;7.10;6.45;;;;;;;26.03;44.87;98008.75;4988879;28;20408;-77
2023/06/08 11:22:13;;;;;;;7.13;6.43;;;;;;;26.32;44.94;98030.53;5026577;28;20021;-77
2023/06/08 11:24:38;;;;;;;7.10;6.40;;;;;;;27.42;43.40;98018.50;5005875;28;20112;-77
2023/06/08 11:27:04;;;;;;;7.95;5.95;;;;;;;27.35;42.32;98023.06;5002441;28;20142;-77